Rockhampton, Australia
Current Conditions -  °F | °C
As of 10:30 PM on Sunday 21 Dec 2014 (Local Time) from YBRK Reporting Station
Clear Clear  
Wind Chill: 77°   Ceiling: Unl
Heat Index: 79°   Visibility: 6mi
Dew Point: 70°   Wind: 9mph
Humidity: 78%   Direction: 80°E
Pressure: 29.97"   Gusts: NA
Location:  23.38°S, 150.51°E
Report Text: YBRK 211230Z AUTO 08008KT 9999 // NCD 25/21 Q1015
Loading
Personal Weather Stations






























Interactive Weather Map New forecast layout! Learn more

10-Day Weather Forecast

Advertisements
Track Severe Weather on mobile